Time,TemperatureF,DewpointF,PressureIn,WindDirection,WindDirectionDegrees,WindSpeedMPH,WindSpeedGustMPH,Humidity,HourlyPrecipIn,Conditions,Clouds,dailyrainin,SoftwareType,DateUTC
2013-01-30 00:05:00,42.9,42.0,30.03,East,95,2.0,3.0,95,0.00,,,0.08,weatherlink.com 1.10,2013-01-30 05:05:00,
2013-01-30 00:20:00,42.9,42.0,30.02,East,96,3.0,4.0,95,0.00,,,0.08,weatherlink.com 1.10,2013-01-30 05:20:00,
2013-01-30 00:35:00,43.2,42.0,30.01,East,89,1.0,4.0,95,0.00,,,0.08,weatherlink.com 1.10,2013-01-30 05:35:00,
2013-01-30 00:50:00,43.4,42.0,30.00,SE,126,2.0,4.0,95,0.00,,,0.08,weatherlink.com 1.10,2013-01-30 05:50:00,
2013-01-30 01:05:00,43.5,43.0,29.99,East,101,2.0,6.0,96,0.00,,,0.08,weatherlink.com 1.10,2013-01-30 06:05:00,
2013-01-30 01:20:00,43.5,43.0,29.98,East,92,0.0,7.0,96,0.00,,,0.08,weatherlink.com 1.10,2013-01-30 06:20:00,
2013-01-30 01:35:00,43.5,43.0,29.98,East,96,0.0,8.0,96,0.00,,,0.08,weatherlink.com 1.10,2013-01-30 06:35:00,
2013-01-30 01:50:00,43.5,43.0,29.98,ESE,111,1.0,5.0,96,0.00,,,0.08,weatherlink.com 1.10,2013-01-30 06:50:00,
2013-01-30 02:05:00,43.5,43.0,29.98,South,182,0.0,5.0,96,0.00,,,0.08,weatherlink.com 1.10,2013-01-30 07:05:00,
2013-01-30 02:20:00,43.5,43.0,29.97,East,93,0.0,4.0,96,0.00,,,0.08,weatherlink.com 1.10,2013-01-30 07:20:00,
2013-01-30 02:35:00,43.4,42.0,29.97,SE,126,0.0,3.0,96,0.00,,,0.08,weatherlink.com 1.10,2013-01-30 07:35:00,
2013-01-30 02:50:00,43.3,42.0,29.95,East,90,1.0,1.0,96,0.00,,,0.08,weatherlink.com 1.10,2013-01-30 07:50:00,
2013-01-30 03:05:00,43.1,42.0,29.95,East,88,0.0,2.0,96,0.00,,,0.08,weatherlink.com 1.10,2013-01-30 08:05:00,
2013-01-30 03:20:00,43.0,42.0,29.93,East,101,0.0,2.0,96,0.00,,,0.08,weatherlink.com 1.10,2013-01-30 08:20:00,
2013-01-30 03:35:00,43.0,42.0,29.92,East,81,0.0,3.0,96,0.00,,,0.08,weatherlink.com 1.10,2013-01-30 08:35:00,
2013-01-30 03:50:00,43.2,42.0,29.91,East,93,1.0,2.0,96,0.00,,,0.08,weatherlink.com 1.10,2013-01-30 08:50:00,
2013-01-30 04:05:00,43.3,42.0,29.90,ENE,77,0.0,4.0,96,0.00,,,0.08,weatherlink.com 1.10,2013-01-30 09:05:00,
2013-01-30 04:20:00,43.1,42.0,29.90,ESE,113,0.0,1.0,96,0.00,,,0.08,weatherlink.com 1.10,2013-01-30 09:20:00,
2013-01-30 04:35:00,43.2,42.0,29.89,ESE,102,0.0,3.0,96,0.00,,,0.08,weatherlink.com 1.10,2013-01-30 09:35:00,
2013-01-30 04:50:00,43.3,43.0,29.90,East,101,0.0,1.0,97,0.00,,,0.08,weatherlink.com 1.10,2013-01-30 09:50:00,
2013-01-30 05:05:00,43.3,43.0,29.89,East,91,0.0,2.0,97,0.00,,,0.08,weatherlink.com 1.10,2013-01-30 10:05:00,
2013-01-30 05:20:00,43.4,43.0,29.89,East,90,0.0,2.0,97,0.00,,,0.08,weatherlink.com 1.10,2013-01-30 10:20:00,
2013-01-30 05:35:00,43.5,43.0,29.88,East,90,1.0,3.0,97,0.00,,,0.08,weatherlink.com 1.10,2013-01-30 10:35:00,
2013-01-30 05:50:00,43.8,43.0,29.88,East,86,1.0,3.0,97,0.00,,,0.08,weatherlink.com 1.10,2013-01-30 10:50:00,
2013-01-30 06:05:00,43.8,43.0,29.87,ENE,63,2.0,4.0,97,0.00,,,0.00,weatherlink.com 1.10,2013-01-30 11:05:00,
2013-01-30 06:20:00,43.6,43.0,29.87,ENE,68,1.0,3.0,97,0.00,,,0.00,weatherlink.com 1.10,2013-01-30 11:20:00,
2013-01-30 06:36:00,43.9,43.0,29.86,ESE,103,0.0,3.0,97,0.00,,,0.00,weatherlink.com 1.10,2013-01-30 11:36:00,
2013-01-30 06:51:00,44.1,43.0,29.86,East,85,2.0,4.0,97,0.00,,,0.00,weatherlink.com 1.10,2013-01-30 11:51:00,
2013-01-30 07:06:00,44.5,44.0,29.85,ESE,105,1.0,3.0,97,0.00,,,0.00,weatherlink.com 1.10,2013-01-30 12:06:00,
2013-01-30 07:21:00,44.7,44.0,29.84,East,87,0.0,4.0,97,0.00,,,0.00,weatherlink.com 1.10,2013-01-30 12:21:00,
2013-01-30 07:36:00,45.1,44.0,29.84,East,94,1.0,5.0,97,0.00,,,0.00,weatherlink.com 1.10,2013-01-30 12:36:00,
2013-01-30 07:51:00,45.3,45.0,29.84,ENE,78,2.0,4.0,97,0.00,,,0.00,weatherlink.com 1.10,2013-01-30 12:51:00,
2013-01-30 08:06:00,45.5,45.0,29.83,East,84,1.0,5.0,97,0.00,,,0.00,weatherlink.com 1.10,2013-01-30 13:06:00,
2013-01-30 08:21:00,45.6,45.0,29.82,East,94,2.0,4.0,97,0.00,,,0.00,weatherlink.com 1.10,2013-01-30 13:21:00,
2013-01-30 08:36:00,45.9,45.0,29.82,SE,137,0.0,6.0,97,0.00,,,0.00,weatherlink.com 1.10,2013-01-30 13:36:00,
2013-01-30 08:51:00,46.1,45.0,29.81,ESE,103,1.0,5.0,97,0.00,,,0.00,weatherlink.com 1.10,2013-01-30 13:51:00,
2013-01-30 09:06:00,46.3,46.0,29.80,East,84,2.0,5.0,97,0.00,,,0.00,weatherlink.com 1.10,2013-01-30 14:06:00,
2013-01-30 09:21:00,46.8,46.0,29.80,ENE,60,2.0,4.0,97,0.00,,,0.00,weatherlink.com 1.10,2013-01-30 14:21:00,
2013-01-30 09:36:00,47.5,47.0,29.78,East,80,0.0,5.0,98,0.00,,,0.00,weatherlink.com 1.10,2013-01-30 14:36:00,
2013-01-30 09:51:00,47.7,47.0,29.78,East,94,5.0,9.0,97,0.00,,,0.00,weatherlink.com 1.10,2013-01-30 14:51:00,
2013-01-30 10:06:00,48.1,48.0,29.76,ESE,105,3.0,8.0,98,0.00,,,0.00,weatherlink.com 1.10,2013-01-30 15:06:00,
2013-01-30 10:21:00,49.0,49.0,29.75,ESE,121,0.0,11.0,98,0.00,,,0.00,weatherlink.com 1.10,2013-01-30 15:21:00,
2013-01-30 10:36:00,50.4,50.0,29.75,SSE,153,4.0,7.0,98,0.00,,,0.00,weatherlink.com 1.10,2013-01-30 15:36:00,
2013-01-30 10:51:00,51.5,51.0,29.74,SW,226,1.0,8.0,98,0.00,,,0.00,weatherlink.com 1.10,2013-01-30 15:51:00,
2013-01-30 11:06:00,52.7,52.0,29.72,SSW,194,3.0,10.0,98,0.00,,,0.00,weatherlink.com 1.10,2013-01-30 16:06:00,
2013-01-30 11:21:00,53.7,53.0,29.70,South,190,6.0,19.0,98,0.00,,,0.00,weatherlink.com 1.10,2013-01-30 16:21:00,
2013-01-30 11:36:00,54.2,54.0,29.70,ESE,122,1.0,11.0,98,0.00,,,0.00,weatherlink.com 1.10,2013-01-30 16:36:00,
2013-01-30 11:51:00,53.9,53.0,29.68,East,84,2.0,10.0,98,0.00,,,0.00,weatherlink.com 1.10,2013-01-30 16:51:00,
2013-01-30 12:06:00,53.3,53.0,29.68,ESE,114,1.0,11.0,98,0.00,,,0.00,weatherlink.com 1.10,2013-01-30 17:06:00,
2013-01-30 12:21:00,53.4,53.0,29.67,SE,140,0.0,7.0,97,0.00,,,0.00,weatherlink.com 1.10,2013-01-30 17:21:00,
2013-01-30 12:36:00,53.7,53.0,29.65,SE,126,4.0,7.0,97,0.00,,,0.00,weatherlink.com 1.10,2013-01-30 17:36:00,
2013-01-30 12:52:00,54.0,53.0,29.63,ENE,64,3.0,8.0,97,0.00,,,0.00,weatherlink.com 1.10,2013-01-30 17:52:00,
2013-01-30 13:07:00,54.6,54.0,29.61,ESE,103,3.0,9.0,96,0.00,,,0.00,weatherlink.com 1.10,2013-01-30 18:07:00,
2013-01-30 13:22:00,55.4,54.0,29.61,SE,136,3.0,7.0,96,0.00,,,0.00,weatherlink.com 1.10,2013-01-30 18:22:00,
2013-01-30 13:37:00,56.7,56.0,29.60,East,83,6.0,7.0,96,0.00,,,0.00,weatherlink.com 1.10,2013-01-30 18:37:00,
2013-01-30 13:52:00,58.7,58.0,29.59,SSE,150,1.0,12.0,96,0.00,,,0.00,weatherlink.com 1.10,2013-01-30 18:52:00,
2013-01-30 14:07:00,60.2,58.0,29.58,SE,136,8.0,12.0,92,0.00,,,0.00,weatherlink.com 1.10,2013-01-30 19:07:00,
2013-01-30 14:22:00,60.6,58.0,29.57,SE,132,0.0,9.0,90,0.00,,,0.00,weatherlink.com 1.10,2013-01-30 19:22:00,
2013-01-30 14:37:00,60.7,58.0,29.56,SSW,197,2.0,10.0,90,0.00,,,0.00,weatherlink.com 1.10,2013-01-30 19:37:00,
2013-01-30 14:52:00,61.3,58.0,29.57,South,170,2.0,15.0,90,0.00,,,0.00,weatherlink.com 1.10,2013-01-30 19:52:00,
2013-01-30 15:07:00,62.0,59.0,29.56,South,171,6.0,13.0,88,0.00,,,0.00,weatherlink.com 1.10,2013-01-30 20:07:00,
2013-01-30 15:22:00,62.6,59.0,29.55,South,184,5.0,17.0,87,0.00,,,0.00,weatherlink.com 1.10,2013-01-30 20:22:00,
2013-01-30 15:37:00,62.9,59.0,29.54,South,179,2.0,16.0,87,0.00,,,0.00,weatherlink.com 1.10,2013-01-30 20:37:00,
2013-01-30 15:52:00,63.1,59.0,29.54,WSW,258,6.0,21.0,87,0.00,,,0.00,weatherlink.com 1.10,2013-01-30 20:52:00,
2013-01-30 16:07:00,63.5,59.0,29.53,South,188,9.0,19.0,86,0.00,,,0.00,weatherlink.com 1.10,2013-01-30 21:07:00,
2013-01-30 16:22:00,63.6,59.0,29.55,WSW,241,10.0,16.0,85,0.00,,,0.00,weatherlink.com 1.10,2013-01-30 21:22:00,
2013-01-30 16:37:00,61.5,58.0,29.56,NW,319,3.0,13.0,88,0.07,,,0.07,weatherlink.com 1.10,2013-01-30 21:37:00,
2013-01-30 16:52:00,59.8,57.0,29.56,WSW,246,1.0,13.0,91,0.09,,,0.09,weatherlink.com 1.10,2013-01-30 21:52:00,
2013-01-30 17:07:00,59.1,57.0,29.56,West,273,1.0,4.0,92,0.09,,,0.09,weatherlink.com 1.10,2013-01-30 22:07:00,
2013-01-30 17:22:00,58.3,56.0,29.57,SW,236,0.0,6.0,92,0.09,,,0.09,weatherlink.com 1.10,2013-01-30 22:22:00,
2013-01-30 17:37:00,57.6,56.0,29.56,East,86,1.0,3.0,93,0.02,,,0.09,weatherlink.com 1.10,2013-01-30 22:37:00,
2013-01-30 17:52:00,56.7,55.0,29.55,ENE,76,1.0,3.0,94,0.01,,,0.10,weatherlink.com 1.10,2013-01-30 22:52:00,
2013-01-30 18:07:00,56.4,55.0,29.54,SE,130,1.0,5.0,95,0.01,,,0.10,weatherlink.com 1.10,2013-01-30 23:07:00,
2013-01-30 18:22:00,56.2,55.0,29.54,NE,53,2.0,4.0,95,0.01,,,0.10,weatherlink.com 1.10,2013-01-30 23:22:00,
2013-01-30 18:37:00,56.1,55.0,29.54,SSE,158,0.0,2.0,96,0.01,,,0.10,weatherlink.com 1.10,2013-01-30 23:37:00,
2013-01-30 18:52:00,55.8,54.0,29.54,East,94,0.0,2.0,95,0.00,,,0.10,weatherlink.com 1.10,2013-01-30 23:52:00,
2013-01-30 19:07:00,55.6,55.0,29.53,NE,43,3.0,5.0,96,0.00,,,0.10,weatherlink.com 1.10,2013-01-31 00:07:00,
2013-01-30 19:22:00,55.4,54.0,29.54,ENE,74,0.0,3.0,96,0.02,,,0.12,weatherlink.com 1.10,2013-01-31 00:22:00,
2013-01-30 19:37:00,55.0,54.0,29.53,ENE,60,1.0,3.0,96,0.03,,,0.13,weatherlink.com 1.10,2013-01-31 00:37:00,
2013-01-30 19:52:00,54.8,54.0,29.52,ENE,66,0.0,2.0,96,0.04,,,0.14,weatherlink.com 1.10,2013-01-31 00:52:00,
2013-01-30 20:07:00,55.0,54.0,29.51,ENE,60,1.0,2.0,97,0.06,,,0.16,weatherlink.com 1.10,2013-01-31 01:07:00,
2013-01-30 20:22:00,54.8,54.0,29.50,East,87,1.0,2.0,97,0.08,,,0.20,weatherlink.com 1.10,2013-01-31 01:22:00,
2013-01-30 20:38:00,54.8,54.0,29.48,East,81,1.0,6.0,97,0.08,,,0.21,weatherlink.com 1.10,2013-01-31 01:38:00,
2013-01-30 20:53:00,54.5,54.0,29.46,ESE,119,2.0,4.0,97,0.10,,,0.24,weatherlink.com 1.10,2013-01-31 01:53:00,
2013-01-30 21:08:00,54.4,54.0,29.46,ENE,73,0.0,3.0,97,0.10,,,0.26,weatherlink.com 1.10,2013-01-31 02:08:00,
2013-01-30 21:23:00,54.1,53.0,29.44,East,90,2.0,3.0,97,0.09,,,0.29,weatherlink.com 1.10,2013-01-31 02:23:00,
2013-01-30 21:38:00,54.2,53.0,29.43,ENE,77,2.0,3.0,97,0.10,,,0.31,weatherlink.com 1.10,2013-01-31 02:38:00,
2013-01-30 21:53:00,54.9,54.0,29.42,ENE,64,0.0,3.0,97,0.13,,,0.37,weatherlink.com 1.10,2013-01-31 02:53:00,
2013-01-30 22:08:00,54.6,54.0,29.41,West,281,0.0,2.0,97,0.21,,,0.47,weatherlink.com 1.10,2013-01-31 03:08:00,
2013-01-30 22:23:00,54.7,54.0,29.38,West,281,0.0,1.0,97,0.21,,,0.50,weatherlink.com 1.10,2013-01-31 03:23:00,
2013-01-30 22:38:00,54.0,53.0,29.38,East,84,0.0,5.0,97,0.19,,,0.50,weatherlink.com 1.10,2013-01-31 03:38:00,
2013-01-30 22:53:00,54.0,53.0,29.38,ENE,65,0.0,2.0,97,0.16,,,0.53,weatherlink.com 1.10,2013-01-31 03:53:00,
2013-01-30 23:08:00,53.6,53.0,29.34,ENE,67,0.0,1.0,97,0.07,,,0.54,weatherlink.com 1.10,2013-01-31 04:08:00,
2013-01-30 23:23:00,53.4,53.0,29.33,ESE,108,1.0,2.0,97,0.04,,,0.54,weatherlink.com 1.10,2013-01-31 04:23:00,
2013-01-30 23:38:00,53.2,52.0,29.30,East,85,1.0,3.0,97,0.06,,,0.56,weatherlink.com 1.10,2013-01-31 04:38:00,
2013-01-30 23:53:00,52.9,52.0,29.29,East,101,1.0,2.0,97,0.04,,,0.57,weatherlink.com 1.10,2013-01-31 04:53:00,